sensor_id;sensor_type;location;lat;lon;timestamp;pressure;altitude;pressure_sealevel;temperature;humidity
64933;BME280;51446;53.850;10.662;2023-03-08T00:01:27;99602.25;;;-1.07;100.00
64933;BME280;51446;53.850;10.662;2023-03-08T00:03:56;99603.47;;;-0.99;100.00
64933;BME280;51446;53.850;10.662;2023-03-08T00:06:23;99607.13;;;-1.13;100.00
64933;BME280;51446;53.850;10.662;2023-03-08T00:08:48;99605.91;;;-1.22;100.00
64933;BME280;51446;53.850;10.662;2023-03-08T00:11:14;99606.78;;;-1.01;100.00
64933;BME280;51446;53.850;10.662;2023-03-08T00:13:40;99619.78;;;-0.98;100.00
64933;BME280;51446;53.850;10.662;2023-03-08T00:16:08;99633.53;;;-1.17;100.00
64933;BME280;51446;53.850;10.662;2023-03-08T00:18:34;99628.38;;;-1.17;100.00
64933;BME280;51446;53.850;10.662;2023-03-08T00:21:01;99630.41;;;-0.91;100.00
64933;BME280;51446;53.850;10.662;2023-03-08T00:23:27;99634.94;;;-1.05;100.00
64933;BME280;51446;53.850;10.662;2023-03-08T00:25:53;99634.03;;;-1.07;100.00
64933;BME280;51446;53.850;10.662;2023-03-08T00:28:19;99636.38;;;-1.11;100.00
64933;BME280;51446;53.850;10.662;2023-03-08T00:30:45;99624.16;;;-0.55;100.00
64933;BME280;51446;53.850;10.662;2023-03-08T00:33:10;99628.59;;;-0.72;100.00
64933;BME280;51446;53.850;10.662;2023-03-08T00:35:35;99613.34;;;-1.08;100.00
64933;BME280;51446;53.850;10.662;2023-03-08T00:38:00;99607.63;;;-0.81;100.00
64933;BME280;51446;53.850;10.662;2023-03-08T00:40:26;99615.66;;;-0.74;100.00
64933;BME280;51446;53.850;10.662;2023-03-08T00:42:51;99625.78;;;-0.78;100.00
64933;BME280;51446;53.850;10.662;2023-03-08T00:45:16;99631.66;;;-0.81;100.00
64933;BME280;51446;53.850;10.662;2023-03-08T00:47:41;99628.16;;;-0.83;100.00
64933;BME280;51446;53.850;10.662;2023-03-08T00:50:07;99638.19;;;-0.89;100.00
64933;BME280;51446;53.850;10.662;2023-03-08T00:52:33;99634.09;;;-0.64;100.00
64933;BME280;51446;53.850;10.662;2023-03-08T00:54:58;99646.06;;;-0.86;100.00
64933;BME280;51446;53.850;10.662;2023-03-08T00:57:23;99646.06;;;-0.86;100.00
64933;BME280;51446;53.850;10.662;2023-03-08T00:59:49;99651.94;;;-0.89;100.00
64933;BME280;51446;53.850;10.662;2023-03-08T01:02:14;99656.41;;;-0.84;100.00
64933;BME280;51446;53.850;10.662;2023-03-08T01:04:39;99664.00;;;-1.07;100.00
64933;BME280;51446;53.850;10.662;2023-03-08T01:07:05;99667.66;;;-1.02;100.00
64933;BME280;51446;53.850;10.662;2023-03-08T01:09:30;99661.84;;;-0.98;100.00
64933;BME280;51446;53.850;10.662;2023-03-08T01:11:55;99664.34;;;-0.99;100.00
64933;BME280;51446;53.850;10.662;2023-03-08T01:14:21;99661.75;;;-0.80;100.00
64933;BME280;51446;53.850;10.662;2023-03-08T01:16:46;99657.09;;;-0.89;100.00
64933;BME280;51446;53.850;10.662;2023-03-08T01:19:11;99658.50;;;-0.76;100.00
64933;BME280;51446;53.850;10.662;2023-03-08T01:21:37;99649.47;;;-0.66;100.00
64933;BME280;51446;53.850;10.662;2023-03-08T01:24:02;99647.72;;;-0.67;100.00
64933;BME280;51446;53.850;10.662;2023-03-08T01:26:27;99644.53;;;-0.81;100.00
64933;BME280;51446;53.850;10.662;2023-03-08T01:28:53;99646.63;;;-0.72;100.00
64933;BME280;51446;53.850;10.662;2023-03-08T01:31:21;99652.41;;;-0.78;100.00
64933;BME280;51446;53.850;10.662;2023-03-08T01:33:47;99652.41;;;-0.78;100.00
64933;BME280;51446;53.850;10.662;2023-03-08T01:36:14;99656.19;;;-0.70;100.00
64933;BME280;51446;53.850;10.662;2023-03-08T01:38:40;99650.53;;;-1.01;100.00
64933;BME280;51446;53.850;10.662;2023-03-08T01:41:07;99652.84;;;-1.08;100.00
64933;BME280;51446;53.850;10.662;2023-03-08T01:43:37;99657.31;;;-1.03;100.00
64933;BME280;51446;53.850;10.662;2023-03-08T01:46:24;99649.91;;;-0.76;100.00
64933;BME280;51446;53.850;10.662;2023-03-08T01:48:55;99656.94;;;-1.11;100.00
64933;BME280;51446;53.850;10.662;2023-03-08T01:51:36;99656.66;;;-0.78;100.00
64933;BME280;51446;53.850;10.662;2023-03-08T01:54:13;99652.97;;;-0.85;100.00
64933;BME280;51446;53.850;10.662;2023-03-08T01:56:41;99648.81;;;-1.01;100.00
64933;BME280;51446;53.850;10.662;2023-03-08T01:59:07;99641.19;;;-1.19;100.00
64933;BME280;51446;53.850;10.662;2023-03-08T02:01:33;99639.09;;;-1.28;100.00
64933;BME280;51446;53.850;10.662;2023-03-08T02:03:59;99643.59;;;-1.42;100.00
64933;BME280;51446;53.850;10.662;2023-03-08T02:06:24;99643.00;;;-1.16;100.00
64933;BME280;51446;53.850;10.662;2023-03-08T02:08:50;99647.44;;;-1.51;100.00
64933;BME280;51446;53.850;10.662;2023-03-08T02:11:16;99640.22;;;-1.41;100.00
64933;BME280;51446;53.850;10.662;2023-03-08T02:13:43;99644.72;;;-1.54;100.00
64933;BME280;51446;53.850;10.662;2023-03-08T02:16:11;99644.63;;;-1.38;100.00
64933;BME280;51446;53.850;10.662;2023-03-08T02:18:57;99649.50;;;-1.25;100.00
64933;BME280;51446;53.850;10.662;2023-03-08T02:21:24;99643.13;;;-1.33;100.00
64933;BME280;51446;53.850;10.662;2023-03-08T02:23:49;99633.84;;;-1.10;100.00
64933;BME280;51446;53.850;10.662;2023-03-08T02:26:15;99638.84;;;-1.52;100.00
64933;BME280;51446;53.850;10.662;2023-03-08T02:28:40;99636.47;;;-1.47;100.00
64933;BME280;51446;53.850;10.662;2023-03-08T02:31:06;99629.97;;;-1.59;100.00
64933;BME280;51446;53.850;10.662;2023-03-08T02:33:32;99629.59;;;-1.29;100.00
64933;BME280;51446;53.850;10.662;2023-03-08T02:36:01;99632.56;;;-1.39;100.00
64933;BME280;51446;53.850;10.662;2023-03-08T02:38:26;99633.84;;;-1.49;100.00
64933;BME280;51446;53.850;10.662;2023-03-08T02:40:51;99637.22;;;-1.50;100.00
64933;BME280;51446;53.850;10.662;2023-03-08T02:43:17;99647.09;;;-1.59;100.00
64933;BME280;51446;53.850;10.662;2023-03-08T02:45:43;99654.72;;;-1.61;100.00
64933;BME280;51446;53.850;10.662;2023-03-08T02:48:09;99657.31;;;-1.61;100.00
64933;BME280;51446;53.850;10.662;2023-03-08T02:50:34;99654.19;;;-1.53;100.00
64933;BME280;51446;53.850;10.662;2023-03-08T02:53:00;99642.75;;;-1.60;100.00
64933;BME280;51446;53.850;10.662;2023-03-08T02:55:26;99654.94;;;-1.56;100.00
64933;BME280;51446;53.850;10.662;2023-03-08T02:57:51;99641.34;;;-1.53;100.00
64933;BME280;51446;53.850;10.662;2023-03-08T03:00:17;99655.72;;;-1.77;100.00
64933;BME280;51446;53.850;10.662;2023-03-08T03:02:42;99651.34;;;-1.60;100.00
64933;BME280;51446;53.850;10.662;2023-03-08T03:05:08;99648.94;;;-1.75;100.00
64933;BME280;51446;53.850;10.662;2023-03-08T03:07:39;99653.16;;;-1.39;100.00
64933;BME280;51446;53.850;10.662;2023-03-08T03:10:05;99643.50;;;-1.63;100.00
64933;BME280;51446;53.850;10.662;2023-03-08T03:12:31;99661.41;;;-1.64;100.00
64933;BME280;51446;53.850;10.662;2023-03-08T03:14:56;99661.50;;;-1.81;100.00
64933;BME280;51446;53.850;10.662;2023-03-08T03:17:21;99664.28;;;-1.76;100.00
64933;BME280;51446;53.850;10.662;2023-03-08T03:19:47;99655.91;;;-1.72;100.00
64933;BME280;51446;53.850;10.662;2023-03-08T03:22:12;99663.38;;;-1.59;100.00
64933;BME280;51446;53.850;10.662;2023-03-08T03:24:38;99669.84;;;-1.49;100.00
64933;BME280;51446;53.850;10.662;2023-03-08T03:27:03;99672.94;;;-1.56;100.00
64933;BME280;51446;53.850;10.662;2023-03-08T03:29:28;99676.25;;;-1.21;100.00
64933;BME280;51446;53.850;10.662;2023-03-08T03:31:54;99677.00;;;-1.04;100.00
64933;BME280;51446;53.850;10.662;2023-03-08T03:34:19;99681.22;;;-1.24;100.00
64933;BME280;51446;53.850;10.662;2023-03-08T03:36:45;99687.78;;;-0.93;100.00
64933;BME280;51446;53.850;10.662;2023-03-08T03:39:10;99683.78;;;-1.06;100.00
64933;BME280;51446;53.850;10.662;2023-03-08T03:41:35;99687.41;;;-1.20;100.00
64933;BME280;51446;53.850;10.662;2023-03-08T03:44:00;99679.16;;;-0.74;100.00
64933;BME280;51446;53.850;10.662;2023-03-08T03:46:26;99678.81;;;-1.01;100.00
64933;BME280;51446;53.850;10.662;2023-03-08T03:48:51;99683.19;;;-0.60;100.00
64933;BME280;51446;53.850;10.662;2023-03-08T03:51:18;99680.66;;;-0.39;100.00
64933;BME280;51446;53.850;10.662;2023-03-08T03:53:44;99678.91;;;-0.59;100.00
64933;BME280;51446;53.850;10.662;2023-03-08T03:56:16;99673.81;;;-0.79;100.00
64933;BME280;51446;53.850;10.662;2023-03-08T03:58:42;99675.66;;;-0.55;100.00
64933;BME280;51446;53.850;10.662;2023-03-08T04:01:18;99673.00;;;-0.78;100.00
64933;BME280;51446;53.850;10.662;2023-03-08T04:03:46;99670.63;;;-0.73;100.00
64933;BME280;51446;53.850;10.662;2023-03-08T04:06:23;99679.28;;;-0.71;100.00
64933;BME280;51446;53.850;10.662;2023-03-08T04:08:51;99684.53;;;-0.89;100.00
64933;BME280;51446;53.850;10.662;2023-03-08T04:11:19;99686.53;;;-1.01;100.00
64933;BME280;51446;53.850;10.662;2023-03-08T04:13:44;99686.44;;;-1.23;100.00
64933;BME280;51446;53.850;10.662;2023-03-08T04:16:15;99686.63;;;-1.19;100.00
64933;BME280;51446;53.850;10.662;2023-03-08T04:18:41;99668.66;;;-0.98;100.00
64933;BME280;51446;53.850;10.662;2023-03-08T04:21:07;99682.75;;;-0.90;100.00
64933;BME280;51446;53.850;10.662;2023-03-08T04:23:33;99680.13;;;-0.92;100.00
64933;BME280;51446;53.850;10.662;2023-03-08T04:25:59;99684.41;;;-0.92;100.00
64933;BME280;51446;53.850;10.662;2023-03-08T04:28:24;99685.03;;;-0.77;100.00
64933;BME280;51446;53.850;10.662;2023-03-08T04:30:50;99687.78;;;-0.93;100.00
64933;BME280;51446;53.850;10.662;2023-03-08T04:33:15;99689.00;;;-0.44;100.00
64933;BME280;51446;53.850;10.662;2023-03-08T04:35:40;99684.63;;;-0.66;100.00
64933;BME280;51446;53.850;10.662;2023-03-08T04:38:05;99689.69;;;-0.48;100.00
64933;BME280;51446;53.850;10.662;2023-03-08T04:40:31;99669.25;;;-0.24;100.00
64933;BME280;51446;53.850;10.662;2023-03-08T04:42:56;99679.31;;;-0.29;100.00
64933;BME280;51446;53.850;10.662;2023-03-08T04:45:21;99666.34;;;-0.11;100.00
64933;BME280;51446;53.850;10.662;2023-03-08T04:47:47;99665.00;;;-0.64;100.00
64933;BME280;51446;53.850;10.662;2023-03-08T04:50:12;99665.72;;;-0.47;100.00
64933;BME280;51446;53.850;10.662;2023-03-08T04:52:38;99666.44;;;-0.91;100.00
64933;BME280;51446;53.850;10.662;2023-03-08T04:55:03;99659.03;;;-0.63;100.00
64933;BME280;51446;53.850;10.662;2023-03-08T04:57:29;99665.00;;;-0.84;100.00
64933;BME280;51446;53.850;10.662;2023-03-08T04:59:54;99658.63;;;-0.73;100.00
64933;BME280;51446;53.850;10.662;2023-03-08T05:02:21;99661.16;;;-1.13;100.00
64933;BME280;51446;53.850;10.662;2023-03-08T05:04:46;99664.00;;;-1.07;100.00
64933;BME280;51446;53.850;10.662;2023-03-08T05:07:12;99672.59;;;-1.26;100.00
64933;BME280;51446;53.850;10.662;2023-03-08T05:09:37;99663.66;;;-1.15;100.00
64933;BME280;51446;53.850;10.662;2023-03-08T05:12:02;99666.38;;;-1.12;100.00
64933;BME280;51446;53.850;10.662;2023-03-08T05:14:27;99669.59;;;-1.16;100.00
64933;BME280;51446;53.850;10.662;2023-03-08T05:16:55;99671.25;;;-1.18;100.00
64933;BME280;51446;53.850;10.662;2023-03-08T05:19:20;99667.84;;;-0.97;100.00
64933;BME280;51446;53.850;10.662;2023-03-08T05:21:45;99668.75;;;-1.16;100.00
64933;BME280;51446;53.850;10.662;2023-03-08T05:24:11;99670.41;;;-1.17;100.00
64933;BME280;51446;53.850;10.662;2023-03-08T05:26:37;99666.44;;;-1.10;100.00
64933;BME280;51446;53.850;10.662;2023-03-08T05:29:03;99668.59;;;-1.00;100.00
64933;BME280;51446;53.850;10.662;2023-03-08T05:31:30;99679.75;;;-1.19;100.00
64933;BME280;51446;53.850;10.662;2023-03-08T05:33:55;99685.72;;;-1.20;100.00
64933;BME280;51446;53.850;10.662;2023-03-08T05:36:21;99682.53;;;-1.14;100.00
64933;BME280;51446;53.850;10.662;2023-03-08T05:38:46;99687.69;;;-1.14;100.00
64933;BME280;51446;53.850;10.662;2023-03-08T05:41:14;99681.59;;;-0.97;100.00
64933;BME280;51446;53.850;10.662;2023-03-08T05:43:39;99681.13;;;-1.08;100.00
64933;BME280;51446;53.850;10.662;2023-03-08T05:46:07;99688.78;;;-0.90;100.00
64933;BME280;51446;53.850;10.662;2023-03-08T05:48:34;99688.84;;;-1.08;100.00
64933;BME280;51446;53.850;10.662;2023-03-08T05:51:04;99693.47;;;-1.00;100.00
64933;BME280;51446;53.850;10.662;2023-03-08T05:53:30;99697.56;;;-1.04;100.00
64933;BME280;51446;53.850;10.662;2023-03-08T05:55:55;99689.44;;;-0.94;100.00
64933;BME280;51446;53.850;10.662;2023-03-08T05:58:21;99680.66;;;-0.99;100.00
64933;BME280;51446;53.850;10.662;2023-03-08T06:00:46;99688.38;;;-0.99;100.00
64933;BME280;51446;53.850;10.662;2023-03-08T06:03:11;99687.28;;;-0.84;100.00
64933;BME280;51446;53.850;10.662;2023-03-08T06:05:37;99695.56;;;-0.92;100.00
64933;BME280;51446;53.850;10.662;2023-03-08T06:08:02;99688.09;;;-0.85;100.00
64933;BME280;51446;53.850;10.662;2023-03-08T06:10:28;99689.69;;;-0.89;100.00
64933;BME280;51446;53.850;10.662;2023-03-08T06:12:53;99687.28;;;-0.84;100.00
64933;BME280;51446;53.850;10.662;2023-03-08T06:15:18;99685.41;;;-0.89;100.00
64933;BME280;51446;53.850;10.662;2023-03-08T06:17:43;99681.59;;;-0.77;100.00
64933;BME280;51446;53.850;10.662;2023-03-08T06:20:09;99681.78;;;-0.73;100.00
64933;BME280;51446;53.850;10.662;2023-03-08T06:22:35;99685.94;;;-0.76;100.00
64933;BME280;51446;53.850;10.662;2023-03-08T06:25:00;99685.78;;;-0.79;100.00
64933;BME280;51446;53.850;10.662;2023-03-08T06:27:26;99690.06;;;-0.80;100.00
64933;BME280;51446;53.850;10.662;2023-03-08T06:29:51;99686.19;;;-0.70;100.00
64933;BME280;51446;53.850;10.662;2023-03-08T06:32:17;99686.47;;;-0.64;100.00
64933;BME280;51446;53.850;10.662;2023-03-08T06:34:42;99686.19;;;-0.70;100.00
64933;BME280;51446;53.850;10.662;2023-03-08T06:37:09;99684.34;;;-0.53;100.00
64933;BME280;51446;53.850;10.662;2023-03-08T06:39:34;99680.94;;;-0.52;100.00
64933;BME280;51446;53.850;10.662;2023-03-08T06:41:59;99687.13;;;-0.48;100.00
64933;BME280;51446;53.850;10.662;2023-03-08T06:44:28;99686.25;;;-0.49;100.00
64933;BME280;51446;53.850;10.662;2023-03-08T06:46:54;99684.41;;;-0.51;100.00
64933;BME280;51446;53.850;10.662;2023-03-08T06:49:20;99687.81;;;-0.53;100.00
64933;BME280;51446;53.850;10.662;2023-03-08T06:51:45;99662.78;;;-0.55;100.00
64933;BME280;51446;53.850;10.662;2023-03-08T06:54:10;99683.81;;;-0.46;100.00
64933;BME280;51446;53.850;10.662;2023-03-08T06:56:38;99686.44;;;-0.44;100.00
64933;BME280;51446;53.850;10.662;2023-03-08T06:59:04;99694.84;;;-0.48;100.00
64933;BME280;51446;53.850;10.662;2023-03-08T07:01:29;99696.56;;;-0.49;100.00
64933;BME280;51446;53.850;10.662;2023-03-08T07:03:54;99691.47;;;-0.47;100.00
64933;BME280;51446;53.850;10.662;2023-03-08T07:06:19;99689.00;;;-0.44;100.00
64933;BME280;51446;53.850;10.662;2023-03-08T07:08:45;99693.19;;;-0.46;100.00
64933;BME280;51446;53.850;10.662;2023-03-08T07:11:10;99688.00;;;-0.48;100.00
64933;BME280;51446;53.850;10.662;2023-03-08T07:13:36;99691.59;;;-0.44;100.00
64933;BME280;51446;53.850;10.662;2023-03-08T07:16:07;99690.34;;;-0.33;100.00
64933;BME280;51446;53.850;10.662;2023-03-08T07:18:32;99691.41;;;-0.28;100.00
64933;BME280;51446;53.850;10.662;2023-03-08T07:20:57;99689.56;;;-0.30;100.00
64933;BME280;51446;53.850;10.662;2023-03-08T07:23:23;99690.59;;;-0.27;100.00
64933;BME280;51446;53.850;10.662;2023-03-08T07:25:48;99684.56;;;-0.27;100.00
64933;BME280;51446;53.850;10.662;2023-03-08T07:28:14;99679.84;;;-0.16;100.00
64933;BME280;51446;53.850;10.662;2023-03-08T07:30:39;99677.91;;;-0.22;100.00
64933;BME280;51446;53.850;10.662;2023-03-08T07:33:05;99675.22;;;-0.04;100.00
64933;BME280;51446;53.850;10.662;2023-03-08T07:35:30;99683.13;;;0.01;100.00
64933;BME280;51446;53.850;10.662;2023-03-08T07:37:55;99679.50;;;0.18;100.00
64933;BME280;51446;53.850;10.662;2023-03-08T07:40:21;99681.28;;;0.42;100.00
64933;BME280;51446;53.850;10.662;2023-03-08T07:42:46;99674.47;;;0.21;100.00
64933;BME280;51446;53.850;10.662;2023-03-08T07:45:12;99674.41;;;0.20;100.00
64933;BME280;51446;53.850;10.662;2023-03-08T07:47:38;99678.13;;;0.26;100.00
64933;BME280;51446;53.850;10.662;2023-03-08T07:50:05;99683.84;;;0.42;100.00
64933;BME280;51446;53.850;10.662;2023-03-08T07:52:30;99681.53;;;0.48;100.00
64933;BME280;51446;53.850;10.662;2023-03-08T07:54:56;99682.00;;;0.60;100.00
64933;BME280;51446;53.850;10.662;2023-03-08T07:57:22;99680.13;;;0.79;100.00
64933;BME280;51446;53.850;10.662;2023-03-08T07:59:49;99683.09;;;0.90;100.00
64933;BME280;51446;53.850;10.662;2023-03-08T08:02:14;99680.84;;;0.99;100.00
64933;BME280;51446;53.850;10.662;2023-03-08T08:04:40;99687.03;;;1.02;100.00
64933;BME280;51446;53.850;10.662;2023-03-08T08:07:06;99686.47;;;1.11;100.00
64933;BME280;51446;53.850;10.662;2023-03-08T08:09:35;99672.66;;;1.11;100.00
64933;BME280;51446;53.850;10.662;2023-03-08T08:12:01;99667.69;;;1.15;100.00
64933;BME280;51446;53.850;10.662;2023-03-08T08:14:27;99673.13;;;1.23;100.00
64933;BME280;51446;53.850;10.662;2023-03-08T08:16:52;99667.66;;;1.39;100.00
64933;BME280;51446;53.850;10.662;2023-03-08T08:19:18;99666.81;;;1.65;100.00
64933;BME280;51446;53.850;10.662;2023-03-08T08:21:43;99671.53;;;1.78;100.00
64933;BME280;51446;53.850;10.662;2023-03-08T08:24:08;99675.56;;;2.23;100.00
64933;BME280;51446;53.850;10.662;2023-03-08T08:26:33;99669.38;;;2.18;100.00
64933;BME280;51446;53.850;10.662;2023-03-08T08:28:59;99666.94;;;1.69;100.00
64933;BME280;51446;53.850;10.662;2023-03-08T08:31:27;99652.69;;;1.81;100.00
64933;BME280;51446;53.850;10.662;2023-03-08T08:33:55;99661.00;;;1.98;100.00
64933;BME280;51446;53.850;10.662;2023-03-08T08:36:21;99660.94;;;2.23;100.00
64933;BME280;51446;53.850;10.662;2023-03-08T08:38:46;99649.00;;;3.50;100.00
64933;BME280;51446;53.850;10.662;2023-03-08T08:41:13;99642.00;;;4.17;100.00
64933;BME280;51446;53.850;10.662;2023-03-08T08:43:40;99645.03;;;4.76;100.00
64933;BME280;51446;53.850;10.662;2023-03-08T08:46:05;99641.63;;;4.39;100.00
64933;BME280;51446;53.850;10.662;2023-03-08T08:48:31;99638.69;;;3.52;100.00
64933;BME280;51446;53.850;10.662;2023-03-08T08:50:58;99641.50;;;3.61;100.00
64933;BME280;51446;53.850;10.662;2023-03-08T08:53:23;99642.69;;;4.10;100.00
64933;BME280;51446;53.850;10.662;2023-03-08T08:55:49;99650.69;;;3.83;100.00
64933;BME280;51446;53.850;10.662;2023-03-08T08:58:14;99658.69;;;2.93;100.00
64933;BME280;51446;53.850;10.662;2023-03-08T09:00:40;99660.44;;;2.64;100.00
64933;BME280;51446;53.850;10.662;2023-03-08T09:03:05;99666.97;;;2.82;100.00
64933;BME280;51446;53.850;10.662;2023-03-08T09:05:32;99658.91;;;2.71;100.00
64933;BME280;51446;53.850;10.662;2023-03-08T09:07:59;99661.03;;;3.48;100.00
64933;BME280;51446;53.850;10.662;2023-03-08T09:10:29;99653.16;;;3.78;100.00
64933;BME280;51446;53.850;10.662;2023-03-08T09:12:55;99649.50;;;4.05;100.00
64933;BME280;51446;53.850;10.662;2023-03-08T09:15:20;99643.94;;;4.66;100.00
64933;BME280;51446;53.850;10.662;2023-03-08T09:17:47;99652.28;;;4.51;100.00
64933;BME280;51446;53.850;10.662;2023-03-08T09:20:15;99653.84;;;3.71;100.00
64933;BME280;51446;53.850;10.662;2023-03-08T09:22:40;99660.84;;;3.74;100.00
64933;BME280;51446;53.850;10.662;2023-03-08T09:25:07;99657.28;;;3.37;100.00
64933;BME280;51446;53.850;10.662;2023-03-08T09:27:33;99664.59;;;3.20;100.00
64933;BME280;51446;53.850;10.662;2023-03-08T09:29:58;99652.72;;;3.28;100.00
64933;BME280;51446;53.850;10.662;2023-03-08T09:32:24;99653.69;;;3.00;100.00
64933;BME280;51446;53.850;10.662;2023-03-08T09:34:53;99657.75;;;3.22;100.00
64933;BME280;51446;53.850;10.662;2023-03-08T09:37:19;99661.50;;;3.01;100.00
64933;BME280;51446;53.850;10.662;2023-03-08T09:39:44;99662.75;;;3.14;100.00
64933;BME280;51446;53.850;10.662;2023-03-08T09:42:22;99665.13;;;2.77;100.00
64933;BME280;51446;53.850;10.662;2023-03-08T09:45:21;99661.22;;;2.92;100.00
64933;BME280;51446;53.850;10.662;2023-03-08T09:48:11;99662.78;;;2.56;100.00
64933;BME280;51446;53.850;10.662;2023-03-08T09:50:46;99663.63;;;2.27;100.00
64933;BME280;51446;53.850;10.662;2023-03-08T09:53:21;99664.84;;;2.38;100.00
64933;BME280;51446;53.850;10.662;2023-03-08T09:56:03;99661.13;;;2.58;100.00
64933;BME280;51446;53.850;10.662;2023-03-08T09:58:52;99662.66;;;2.52;100.00
64933;BME280;51446;53.850;10.662;2023-03-08T10:01:26;99656.78;;;2.57;100.00
64933;BME280;51446;53.850;10.662;2023-03-08T10:04:23;99661.66;;;2.47;100.00
64933;BME280;51446;53.850;10.662;2023-03-08T10:09:31;99661.13;;;2.30;100.00
64933;BME280;51446;53.850;10.662;2023-03-08T10:12:29;99663.38;;;2.48;100.00
64933;BME280;51446;53.850;10.662;2023-03-08T10:15:03;99652.22;;;3.09;100.00
64933;BME280;51446;53.850;10.662;2023-03-08T10:17:39;99645.13;;;4.41;100.00
64933;BME280;51446;53.850;10.662;2023-03-08T10:20:18;99638.41;;;4.50;100.00
64933;BME280;51446;53.850;10.662;2023-03-08T10:22:45;99636.91;;;5.01;100.00
64933;BME280;51446;53.850;10.662;2023-03-08T10:25:32;99636.66;;;4.91;100.00
64933;BME280;51446;53.850;10.662;2023-03-08T10:28:01;99635.84;;;4.12;100.00
64933;BME280;51446;53.850;10.662;2023-03-08T10:30:35;99628.13;;;4.15;100.00
64933;BME280;51446;53.850;10.662;2023-03-08T10:33:05;99636.06;;;3.85;100.00
64933;BME280;51446;53.850;10.662;2023-03-08T10:35:35;99630.41;;;4.03;100.00
64933;BME280;51446;53.850;10.662;2023-03-08T10:38:13;99632.53;;;3.83;100.00
64933;BME280;51446;53.850;10.662;2023-03-08T10:40:39;99626.28;;;3.41;100.00
64933;BME280;51446;53.850;10.662;2023-03-08T10:43:05;99623.69;;;3.08;100.00
64933;BME280;51446;53.850;10.662;2023-03-08T10:45:30;99628.69;;;3.34;100.00
64933;BME280;51446;53.850;10.662;2023-03-08T10:48:01;99624.28;;;3.29;100.00
64933;BME280;51446;53.850;10.662;2023-03-08T10:50:33;99626.03;;;2.99;100.00
64933;BME280;51446;53.850;10.662;2023-03-08T10:53:17;99619.25;;;3.04;100.00
64933;BME280;51446;53.850;10.662;2023-03-08T10:55:46;99626.78;;;2.94;100.00
64933;BME280;51446;53.850;10.662;2023-03-08T10:58:34;99622.75;;;3.04;100.00
64933;BME280;51446;53.850;10.662;2023-03-08T11:01:28;99618.91;;;3.22;100.00
64933;BME280;51446;53.850;10.662;2023-03-08T11:04:02;99603.16;;;3.14;100.00
64933;BME280;51446;53.850;10.662;2023-03-08T11:06:28;99621.44;;;3.20;100.00
64933;BME280;51446;53.850;10.662;2023-03-08T11:08:56;99615.25;;;3.15;100.00
64933;BME280;51446;53.850;10.662;2023-03-08T11:11:21;99611.13;;;3.22;100.00
64933;BME280;51446;53.850;10.662;2023-03-08T11:13:49;99609.16;;;3.81;100.00
64933;BME280;51446;53.850;10.662;2023-03-08T11:16:48;99607.72;;;3.58;100.00
64933;BME280;51446;53.850;10.662;2023-03-08T11:22:02;99612.88;;;3.56;100.00
64933;BME280;51446;53.850;10.662;2023-03-08T11:29:48;99602.53;;;3.94;100.00
64933;BME280;51446;53.850;10.662;2023-03-08T11:35:08;99604.63;;;3.73;100.00
64933;BME280;51446;53.850;10.662;2023-03-08T11:37:43;99598.78;;;3.81;100.00
64933;BME280;51446;53.850;10.662;2023-03-08T11:40:21;99603.09;;;3.81;100.00
64933;BME280;51446;53.850;10.662;2023-03-08T11:43:10;99594.78;;;4.32;100.00
64933;BME280;51446;53.850;10.662;2023-03-08T11:51:16;99601.44;;;3.85;100.00
64933;BME280;51446;53.850;10.662;2023-03-08T11:56:32;99589.28;;;4.19;100.00
64933;BME280;51446;53.850;10.662;2023-03-08T11:59:06;99587.66;;;4.24;100.00
64933;BME280;51446;53.850;10.662;2023-03-08T12:01:50;99590.44;;;3.93;100.00
64933;BME280;51446;53.850;10.662;2023-03-08T12:04:26;99589.72;;;4.80;100.00
64933;BME280;51446;53.850;10.662;2023-03-08T12:06:54;99588.09;;;4.44;99.95
64933;BME280;51446;53.850;10.662;2023-03-08T12:12:08;99583.06;;;3.74;100.00
64933;BME280;51446;53.850;10.662;2023-03-08T12:14:59;99578.25;;;3.89;100.00
64933;BME280;51446;53.850;10.662;2023-03-08T12:17:33;99577.34;;;4.27;100.00
64933;BME280;51446;53.850;10.662;2023-03-08T12:19:59;99582.31;;;4.17;100.00
64933;BME280;51446;53.850;10.662;2023-03-08T12:22:52;99581.06;;;4.00;100.00
64933;BME280;51446;53.850;10.662;2023-03-08T12:25:28;99576.97;;;3.72;100.00
64933;BME280;51446;53.850;10.662;2023-03-08T12:28:00;99579.97;;;3.54;100.00
64933;BME280;51446;53.850;10.662;2023-03-08T12:30:40;99581.91;;;3.27;100.00
64933;BME280;51446;53.850;10.662;2023-03-08T12:33:10;99574.25;;;3.32;100.00
64933;BME280;51446;53.850;10.662;2023-03-08T12:35:37;99577.13;;;3.43;100.00
64933;BME280;51446;53.850;10.662;2023-03-08T12:41:02;99563.41;;;3.13;100.00
64933;BME280;51446;53.850;10.662;2023-03-08T12:43:31;99574.03;;;2.91;100.00
64933;BME280;51446;53.850;10.662;2023-03-08T12:56:30;99563.13;;;3.03;100.00
64933;BME280;51446;53.850;10.662;2023-03-08T12:59:01;99569.69;;;2.90;100.00
64933;BME280;51446;53.850;10.662;2023-03-08T13:01:43;99572.16;;;2.85;100.00
64933;BME280;51446;53.850;10.662;2023-03-08T13:04:25;99567.75;;;2.81;100.00
64933;BME280;51446;53.850;10.662;2023-03-08T13:14:43;99575.94;;;2.98;100.00
64933;BME280;51446;53.850;10.662;2023-03-08T13:19:53;99570.69;;;2.95;100.00
64933;BME280;51446;53.850;10.662;2023-03-08T13:22:30;99579.28;;;2.92;100.00
64933;BME280;51446;53.850;10.662;2023-03-08T13:25:17;99565.66;;;3.00;100.00
64933;BME280;51446;53.850;10.662;2023-03-08T13:28:03;99567.09;;;2.90;100.00
64933;BME280;51446;53.850;10.662;2023-03-08T13:30:35;99562.19;;;3.01;100.00
64933;BME280;51446;53.850;10.662;2023-03-08T13:33:06;99561.56;;;3.09;100.00
64933;BME280;51446;53.850;10.662;2023-03-08T13:35:32;99571.88;;;3.08;100.00
64933;BME280;51446;53.850;10.662;2023-03-08T13:37:58;99569.19;;;3.03;100.00